sensor_id;sensor_type;location;lat;lon;timestamp;P1;durP1;ratioP1;P2;durP2;ratioP2
18114;SDS011;9184;54.390;18.620;2023-07-09T00:00:12;12.35;;;8.82;;
18114;SDS011;9184;54.390;18.620;2023-07-09T00:00:44;11.40;;;8.60;;
18114;SDS011;9184;54.390;18.620;2023-07-09T00:01:15;14.30;;;9.05;;
18114;SDS011;9184;54.390;18.620;2023-07-09T00:01:47;13.32;;;8.65;;
18114;SDS011;9184;54.390;18.620;2023-07-09T00:02:17;15.15;;;8.95;;
18114;SDS011;9184;54.390;18.620;2023-07-09T00:02:49;14.80;;;9.20;;
18114;SDS011;9184;54.390;18.620;2023-07-09T00:03:19;15.00;;;9.20;;
18114;SDS011;9184;54.390;18.620;2023-07-09T00:03:50;13.13;;;8.27;;
18114;SDS011;9184;54.390;18.620;2023-07-09T00:04:21;14.88;;;9.57;;
18114;SDS011;9184;54.390;18.620;2023-07-09T00:04:53;13.02;;;9.23;;
18114;SDS011;9184;54.390;18.620;2023-07-09T00:05:23;13.52;;;8.60;;
18114;SDS011;9184;54.390;18.620;2023-07-09T00:05:54;15.05;;;9.35;;
18114;SDS011;9184;54.390;18.620;2023-07-09T00:06:24;15.13;;;8.77;;
18114;SDS011;9184;54.390;18.620;2023-07-09T00:06:56;14.43;;;9.35;;
18114;SDS011;9184;54.390;18.620;2023-07-09T00:07:30;13.95;;;9.05;;
18114;SDS011;9184;54.390;18.620;2023-07-09T00:08:00;9.95;;;8.27;;
18114;SDS011;9184;54.390;18.620;2023-07-09T00:08:32;12.45;;;9.02;;
18114;SDS011;9184;54.390;18.620;2023-07-09T00:09:03;17.38;;;9.95;;
18114;SDS011;9184;54.390;18.620;2023-07-09T00:09:34;14.65;;;9.25;;
18114;SDS011;9184;54.390;18.620;2023-07-09T00:10:08;13.48;;;9.48;;
18114;SDS011;9184;54.390;18.620;2023-07-09T00:10:43;13.77;;;9.45;;
18114;SDS011;9184;54.390;18.620;2023-07-09T00:11:14;15.73;;;9.15;;
18114;SDS011;9184;54.390;18.620;2023-07-09T00:11:45;15.73;;;10.15;;
18114;SDS011;9184;54.390;18.620;2023-07-09T00:12:16;11.27;;;8.68;;
18114;SDS011;9184;54.390;18.620;2023-07-09T00:12:48;17.38;;;9.52;;
18114;SDS011;9184;54.390;18.620;2023-07-09T00:13:18;12.63;;;8.52;;
18114;SDS011;9184;54.390;18.620;2023-07-09T00:13:49;14.35;;;8.82;;
18114;SDS011;9184;54.390;18.620;2023-07-09T00:14:20;14.93;;;9.07;;
18114;SDS011;9184;54.390;18.620;2023-07-09T00:14:53;11.65;;;9.10;;
18114;SDS011;9184;54.390;18.620;2023-07-09T00:15:24;15.23;;;9.18;;
18114;SDS011;9184;54.390;18.620;2023-07-09T00:15:57;14.32;;;8.70;;
18114;SDS011;9184;54.390;18.620;2023-07-09T00:16:28;11.70;;;8.93;;
18114;SDS011;9184;54.390;18.620;2023-07-09T00:17:00;12.40;;;9.55;;
18114;SDS011;9184;54.390;18.620;2023-07-09T00:17:31;13.02;;;9.40;;
18114;SDS011;9184;54.390;18.620;2023-07-09T00:18:03;13.57;;;9.43;;
18114;SDS011;9184;54.390;18.620;2023-07-09T00:18:34;15.15;;;9.40;;
18114;SDS011;9184;54.390;18.620;2023-07-09T00:19:08;14.55;;;8.45;;
18114;SDS011;9184;54.390;18.620;2023-07-09T00:19:41;16.25;;;9.77;;
18114;SDS011;9184;54.390;18.620;2023-07-09T00:20:15;13.55;;;9.77;;
18114;SDS011;9184;54.390;18.620;2023-07-09T00:20:47;19.65;;;10.23;;
18114;SDS011;9184;54.390;18.620;2023-07-09T00:21:19;15.57;;;9.52;;
18114;SDS011;9184;54.390;18.620;2023-07-09T00:21:50;13.77;;;9.10;;
18114;SDS011;9184;54.390;18.620;2023-07-09T00:22:23;12.60;;;9.32;;
18114;SDS011;9184;54.390;18.620;2023-07-09T00:22:57;12.93;;;9.30;;
18114;SDS011;9184;54.390;18.620;2023-07-09T00:23:27;16.00;;;9.10;;
18114;SDS011;9184;54.390;18.620;2023-07-09T00:23:57;14.27;;;9.95;;
18114;SDS011;9184;54.390;18.620;2023-07-09T00:24:29;12.20;;;9.20;;
18114;SDS011;9184;54.390;18.620;2023-07-09T00:25:01;17.15;;;9.77;;
18114;SDS011;9184;54.390;18.620;2023-07-09T00:25:32;16.60;;;9.75;;
18114;SDS011;9184;54.390;18.620;2023-07-09T00:26:07;11.90;;;9.80;;
18114;SDS011;9184;54.390;18.620;2023-07-09T00:26:40;14.20;;;9.13;;
18114;SDS011;9184;54.390;18.620;2023-07-09T00:27:12;14.07;;;9.63;;
18114;SDS011;9184;54.390;18.620;2023-07-09T00:27:43;20.23;;;10.05;;
18114;SDS011;9184;54.390;18.620;2023-07-09T00:28:16;12.60;;;9.82;;
18114;SDS011;9184;54.390;18.620;2023-07-09T00:28:47;15.30;;;10.05;;
18114;SDS011;9184;54.390;18.620;2023-07-09T00:29:18;12.90;;;10.15;;
18114;SDS011;9184;54.390;18.620;2023-07-09T00:29:49;14.32;;;10.15;;
18114;SDS011;9184;54.390;18.620;2023-07-09T00:30:21;11.43;;;9.45;;
18114;SDS011;9184;54.390;18.620;2023-07-09T00:30:53;15.20;;;9.93;;
18114;SDS011;9184;54.390;18.620;2023-07-09T00:31:24;12.60;;;9.77;;
18114;SDS011;9184;54.390;18.620;2023-07-09T00:31:54;15.30;;;9.73;;
18114;SDS011;9184;54.390;18.620;2023-07-09T00:32:25;14.55;;;9.88;;
18114;SDS011;9184;54.390;18.620;2023-07-09T00:32:58;12.27;;;9.93;;
18114;SDS011;9184;54.390;18.620;2023-07-09T00:33:28;13.75;;;10.48;;
18114;SDS011;9184;54.390;18.620;2023-07-09T00:34:01;14.40;;;10.10;;
18114;SDS011;9184;54.390;18.620;2023-07-09T00:34:32;15.10;;;9.95;;
18114;SDS011;9184;54.390;18.620;2023-07-09T00:35:03;13.95;;;10.48;;
18114;SDS011;9184;54.390;18.620;2023-07-09T00:35:35;13.48;;;9.93;;
18114;SDS011;9184;54.390;18.620;2023-07-09T00:36:07;15.32;;;11.43;;
18114;SDS011;9184;54.390;18.620;2023-07-09T00:36:41;17.13;;;10.57;;
18114;SDS011;9184;54.390;18.620;2023-07-09T00:37:14;16.33;;;10.25;;
18114;SDS011;9184;54.390;18.620;2023-07-09T00:37:45;14.05;;;9.73;;
18114;SDS011;9184;54.390;18.620;2023-07-09T00:38:17;15.90;;;10.52;;
18114;SDS011;9184;54.390;18.620;2023-07-09T00:38:50;15.02;;;10.65;;
18114;SDS011;9184;54.390;18.620;2023-07-09T00:39:21;13.80;;;10.02;;
18114;SDS011;9184;54.390;18.620;2023-07-09T00:39:52;16.38;;;10.43;;
18114;SDS011;9184;54.390;18.620;2023-07-09T00:40:23;14.75;;;11.05;;
18114;SDS011;9184;54.390;18.620;2023-07-09T00:41:00;15.40;;;11.15;;
18114;SDS011;9184;54.390;18.620;2023-07-09T00:41:31;16.60;;;11.18;;
18114;SDS011;9184;54.390;18.620;2023-07-09T00:42:02;17.30;;;11.02;;
18114;SDS011;9184;54.390;18.620;2023-07-09T00:42:33;12.82;;;10.90;;
18114;SDS011;9184;54.390;18.620;2023-07-09T00:43:04;15.15;;;11.88;;
18114;SDS011;9184;54.390;18.620;2023-07-09T00:43:40;17.27;;;11.98;;
18114;SDS011;9184;54.390;18.620;2023-07-09T00:44:20;15.80;;;11.32;;
18114;SDS011;9184;54.390;18.620;2023-07-09T00:44:53;18.85;;;11.23;;
18114;SDS011;9184;54.390;18.620;2023-07-09T00:45:26;14.07;;;12.27;;
18114;SDS011;9184;54.390;18.620;2023-07-09T00:47:39;16.73;;;11.60;;
18114;SDS011;9184;54.390;18.620;2023-07-09T00:48:13;15.73;;;11.43;;
18114;SDS011;9184;54.390;18.620;2023-07-09T00:48:46;23.20;;;11.93;;
18114;SDS011;9184;54.390;18.620;2023-07-09T00:49:26;15.02;;;10.93;;
18114;SDS011;9184;54.390;18.620;2023-07-09T00:50:00;17.38;;;11.93;;
18114;SDS011;9184;54.390;18.620;2023-07-09T00:50:33;19.17;;;12.27;;
18114;SDS011;9184;54.390;18.620;2023-07-09T00:51:07;18.48;;;13.07;;
18114;SDS011;9184;54.390;18.620;2023-07-09T00:51:40;22.35;;;13.18;;
18114;SDS011;9184;54.390;18.620;2023-07-09T00:52:15;18.67;;;11.77;;
18114;SDS011;9184;54.390;18.620;2023-07-09T00:52:50;16.42;;;12.13;;
18114;SDS011;9184;54.390;18.620;2023-07-09T00:53:25;20.30;;;12.63;;
18114;SDS011;9184;54.390;18.620;2023-07-09T00:53:57;16.08;;;11.82;;
18114;SDS011;9184;54.390;18.620;2023-07-09T00:54:30;19.38;;;12.40;;
18114;SDS011;9184;54.390;18.620;2023-07-09T00:55:03;19.08;;;11.52;;
18114;SDS011;9184;54.390;18.620;2023-07-09T00:55:36;17.42;;;11.55;;
18114;SDS011;9184;54.390;18.620;2023-07-09T00:56:09;19.02;;;12.52;;
18114;SDS011;9184;54.390;18.620;2023-07-09T00:56:43;17.52;;;11.95;;
18114;SDS011;9184;54.390;18.620;2023-07-09T00:57:16;18.15;;;12.52;;
18114;SDS011;9184;54.390;18.620;2023-07-09T00:57:48;19.52;;;12.85;;
18114;SDS011;9184;54.390;18.620;2023-07-09T00:58:26;18.65;;;12.60;;
18114;SDS011;9184;54.390;18.620;2023-07-09T00:58:58;19.38;;;11.90;;
18114;SDS011;9184;54.390;18.620;2023-07-09T00:59:34;19.52;;;13.27;;
18114;SDS011;9184;54.390;18.620;2023-07-09T01:00:09;18.92;;;13.30;;
18114;SDS011;9184;54.390;18.620;2023-07-09T01:00:44;18.75;;;12.95;;
18114;SDS011;9184;54.390;18.620;2023-07-09T01:01:16;17.73;;;12.52;;
18114;SDS011;9184;54.390;18.620;2023-07-09T01:01:49;19.75;;;13.43;;
18114;SDS011;9184;54.390;18.620;2023-07-09T01:02:20;16.25;;;12.30;;
18114;SDS011;9184;54.390;18.620;2023-07-09T01:02:53;17.45;;;13.00;;
18114;SDS011;9184;54.390;18.620;2023-07-09T01:03:25;17.98;;;12.98;;
18114;SDS011;9184;54.390;18.620;2023-07-09T01:03:59;16.38;;;12.00;;
18114;SDS011;9184;54.390;18.620;2023-07-09T01:04:30;18.33;;;13.68;;
18114;SDS011;9184;54.390;18.620;2023-07-09T01:05:01;23.00;;;13.32;;
18114;SDS011;9184;54.390;18.620;2023-07-09T01:05:32;18.70;;;12.88;;
18114;SDS011;9184;54.390;18.620;2023-07-09T01:06:04;18.08;;;13.18;;
18114;SDS011;9184;54.390;18.620;2023-07-09T01:06:36;19.63;;;12.52;;
18114;SDS011;9184;54.390;18.620;2023-07-09T01:07:06;16.70;;;13.35;;
18114;SDS011;9184;54.390;18.620;2023-07-09T01:07:37;16.17;;;13.02;;
18114;SDS011;9184;54.390;18.620;2023-07-09T01:08:08;18.95;;;12.65;;
18114;SDS011;9184;54.390;18.620;2023-07-09T01:08:39;19.38;;;13.68;;
18114;SDS011;9184;54.390;18.620;2023-07-09T01:09:11;17.67;;;12.80;;
18114;SDS011;9184;54.390;18.620;2023-07-09T01:09:42;22.30;;;13.48;;
18114;SDS011;9184;54.390;18.620;2023-07-09T01:10:12;22.88;;;13.18;;
18114;SDS011;9184;54.390;18.620;2023-07-09T01:10:45;16.27;;;12.35;;
18114;SDS011;9184;54.390;18.620;2023-07-09T01:11:15;22.98;;;14.05;;
18114;SDS011;9184;54.390;18.620;2023-07-09T01:11:51;22.15;;;13.43;;
18114;SDS011;9184;54.390;18.620;2023-07-09T01:12:26;18.13;;;12.70;;
18114;SDS011;9184;54.390;18.620;2023-07-09T01:12:56;14.20;;;12.57;;
18114;SDS011;9184;54.390;18.620;2023-07-09T01:13:27;16.45;;;12.88;;
18114;SDS011;9184;54.390;18.620;2023-07-09T01:13:59;18.00;;;13.18;;
18114;SDS011;9184;54.390;18.620;2023-07-09T01:14:31;20.90;;;13.35;;
18114;SDS011;9184;54.390;18.620;2023-07-09T01:15:01;18.17;;;11.65;;
18114;SDS011;9184;54.390;18.620;2023-07-09T01:15:32;17.38;;;13.18;;
18114;SDS011;9184;54.390;18.620;2023-07-09T01:16:05;17.73;;;12.35;;
18114;SDS011;9184;54.390;18.620;2023-07-09T01:16:40;18.75;;;13.27;;
18114;SDS011;9184;54.390;18.620;2023-07-09T01:17:11;18.13;;;12.25;;
18114;SDS011;9184;54.390;18.620;2023-07-09T01:17:42;17.52;;;12.98;;
18114;SDS011;9184;54.390;18.620;2023-07-09T01:18:14;15.05;;;11.65;;
18114;SDS011;9184;54.390;18.620;2023-07-09T01:18:46;17.38;;;12.02;;
18114;SDS011;9184;54.390;18.620;2023-07-09T01:19:20;19.02;;;12.57;;
18114;SDS011;9184;54.390;18.620;2023-07-09T01:19:54;19.63;;;13.05;;
18114;SDS011;9184;54.390;18.620;2023-07-09T01:20:26;17.23;;;12.35;;
18114;SDS011;9184;54.390;18.620;2023-07-09T01:21:03;16.88;;;12.25;;
18114;SDS011;9184;54.390;18.620;2023-07-09T01:21:37;17.50;;;12.13;;
18114;SDS011;9184;54.390;18.620;2023-07-09T01:22:08;17.40;;;13.35;;
18114;SDS011;9184;54.390;18.620;2023-07-09T01:22:41;19.30;;;13.82;;
18114;SDS011;9184;54.390;18.620;2023-07-09T01:23:13;18.25;;;13.57;;
18114;SDS011;9184;54.390;18.620;2023-07-09T01:23:45;19.90;;;13.80;;
18114;SDS011;9184;54.390;18.620;2023-07-09T01:24:16;19.92;;;13.75;;
18114;SDS011;9184;54.390;18.620;2023-07-09T01:25:06;16.15;;;12.38;;
18114;SDS011;9184;54.390;18.620;2023-07-09T01:25:41;16.77;;;11.93;;
18114;SDS011;9184;54.390;18.620;2023-07-09T01:26:13;18.63;;;12.80;;
18114;SDS011;9184;54.390;18.620;2023-07-09T01:26:44;24.33;;;13.95;;
18114;SDS011;9184;54.390;18.620;2023-07-09T01:27:18;15.80;;;12.18;;
18114;SDS011;9184;54.390;18.620;2023-07-09T01:27:48;18.67;;;13.90;;
18114;SDS011;9184;54.390;18.620;2023-07-09T01:28:20;19.05;;;13.48;;
18114;SDS011;9184;54.390;18.620;2023-07-09T01:28:51;18.35;;;13.25;;
18114;SDS011;9184;54.390;18.620;2023-07-09T01:29:21;24.23;;;14.35;;
18114;SDS011;9184;54.390;18.620;2023-07-09T01:29:52;18.38;;;13.60;;
18114;SDS011;9184;54.390;18.620;2023-07-09T01:30:30;19.27;;;14.07;;
18114;SDS011;9184;54.390;18.620;2023-07-09T01:31:01;19.02;;;13.45;;
18114;SDS011;9184;54.390;18.620;2023-07-09T01:31:34;18.17;;;13.50;;
18114;SDS011;9184;54.390;18.620;2023-07-09T01:32:06;24.70;;;14.07;;
18114;SDS011;9184;54.390;18.620;2023-07-09T01:32:37;22.75;;;13.40;;
18114;SDS011;9184;54.390;18.620;2023-07-09T01:33:09;19.30;;;13.38;;
18114;SDS011;9184;54.390;18.620;2023-07-09T01:33:40;23.02;;;13.35;;
18114;SDS011;9184;54.390;18.620;2023-07-09T01:34:11;19.73;;;13.80;;
18114;SDS011;9184;54.390;18.620;2023-07-09T01:34:45;19.92;;;13.43;;
18114;SDS011;9184;54.390;18.620;2023-07-09T01:35:19;28.10;;;13.32;;
18114;SDS011;9184;54.390;18.620;2023-07-09T01:35:49;18.15;;;12.82;;
18114;SDS011;9184;54.390;18.620;2023-07-09T01:36:21;16.48;;;12.88;;
18114;SDS011;9184;54.390;18.620;2023-07-09T01:36:53;19.95;;;12.48;;
18114;SDS011;9184;54.390;18.620;2023-07-09T01:37:25;17.92;;;12.95;;
18114;SDS011;9184;54.390;18.620;2023-07-09T01:37:55;17.42;;;13.55;;
18114;SDS011;9184;54.390;18.620;2023-07-09T01:38:26;17.45;;;12.60;;
18114;SDS011;9184;54.390;18.620;2023-07-09T01:39:00;19.90;;;13.05;;
18114;SDS011;9184;54.390;18.620;2023-07-09T01:39:31;16.25;;;12.30;;
18114;SDS011;9184;54.390;18.620;2023-07-09T01:40:02;20.60;;;11.95;;
18114;SDS011;9184;54.390;18.620;2023-07-09T01:40:35;15.95;;;13.13;;
18114;SDS011;9184;54.390;18.620;2023-07-09T01:41:07;19.05;;;12.43;;
18114;SDS011;9184;54.390;18.620;2023-07-09T01:41:37;22.52;;;13.18;;
18114;SDS011;9184;54.390;18.620;2023-07-09T01:42:09;19.52;;;12.63;;
18114;SDS011;9184;54.390;18.620;2023-07-09T01:42:40;19.60;;;13.00;;
18114;SDS011;9184;54.390;18.620;2023-07-09T01:43:11;18.05;;;12.52;;
18114;SDS011;9184;54.390;18.620;2023-07-09T01:43:42;19.75;;;13.27;;
18114;SDS011;9184;54.390;18.620;2023-07-09T01:44:13;18.38;;;13.27;;
18114;SDS011;9184;54.390;18.620;2023-07-09T01:44:43;18.77;;;13.32;;
18114;SDS011;9184;54.390;18.620;2023-07-09T01:45:15;19.20;;;12.63;;
18114;SDS011;9184;54.390;18.620;2023-07-09T01:45:47;17.58;;;13.07;;
18114;SDS011;9184;54.390;18.620;2023-07-09T01:46:20;19.73;;;12.30;;
18114;SDS011;9184;54.390;18.620;2023-07-09T01:46:51;17.85;;;13.85;;
18114;SDS011;9184;54.390;18.620;2023-07-09T01:47:23;20.60;;;13.35;;
18114;SDS011;9184;54.390;18.620;2023-07-09T01:47:55;21.92;;;14.00;;
18114;SDS011;9184;54.390;18.620;2023-07-09T01:48:26;20.05;;;12.85;;
18114;SDS011;9184;54.390;18.620;2023-07-09T01:48:57;20.55;;;14.13;;
18114;SDS011;9184;54.390;18.620;2023-07-09T01:49:27;18.23;;;13.40;;
18114;SDS011;9184;54.390;18.620;2023-07-09T01:50:00;17.40;;;12.63;;
18114;SDS011;9184;54.390;18.620;2023-07-09T01:50:30;17.52;;;13.38;;
18114;SDS011;9184;54.390;18.620;2023-07-09T01:51:02;18.92;;;12.95;;
18114;SDS011;9184;54.390;18.620;2023-07-09T01:51:34;21.00;;;12.85;;
18114;SDS011;9184;54.390;18.620;2023-07-09T01:52:06;20.23;;;12.82;;
18114;SDS011;9184;54.390;18.620;2023-07-09T01:52:41;21.80;;;13.35;;
18114;SDS011;9184;54.390;18.620;2023-07-09T01:53:13;16.67;;;12.13;;
18114;SDS011;9184;54.390;18.620;2023-07-09T01:53:45;18.80;;;14.90;;
18114;SDS011;9184;54.390;18.620;2023-07-09T01:54:15;20.45;;;13.88;;
18114;SDS011;9184;54.390;18.620;2023-07-09T01:54:46;18.83;;;13.02;;
18114;SDS011;9184;54.390;18.620;2023-07-09T01:55:19;20.15;;;13.52;;
18114;SDS011;9184;54.390;18.620;2023-07-09T01:55:50;18.38;;;12.88;;
18114;SDS011;9184;54.390;18.620;2023-07-09T01:56:20;18.67;;;13.40;;
18114;SDS011;9184;54.390;18.620;2023-07-09T01:56:51;16.45;;;12.57;;
18114;SDS011;9184;54.390;18.620;2023-07-09T01:57:31;20.25;;;12.90;;
18114;SDS011;9184;54.390;18.620;2023-07-09T01:58:04;19.95;;;13.48;;
18114;SDS011;9184;54.390;18.620;2023-07-09T01:58:36;17.95;;;13.55;;
18114;SDS011;9184;54.390;18.620;2023-07-09T01:59:11;22.08;;;13.48;;
18114;SDS011;9184;54.390;18.620;2023-07-09T01:59:41;19.75;;;14.25;;
18114;SDS011;9184;54.390;18.620;2023-07-09T02:00:13;21.05;;;13.13;;
18114;SDS011;9184;54.390;18.620;2023-07-09T02:00:44;19.15;;;13.30;;
18114;SDS011;9184;54.390;18.620;2023-07-09T02:01:16;19.17;;;13.25;;
18114;SDS011;9184;54.390;18.620;2023-07-09T02:01:49;18.80;;;13.93;;
18114;SDS011;9184;54.390;18.620;2023-07-09T02:02:23;20.00;;;14.10;;
18114;SDS011;9184;54.390;18.620;2023-07-09T02:02:55;18.80;;;12.60;;
18114;SDS011;9184;54.390;18.620;2023-07-09T02:03:28;20.58;;;13.90;;
18114;SDS011;9184;54.390;18.620;2023-07-09T02:03:59;19.92;;;12.80;;
18114;SDS011;9184;54.390;18.620;2023-07-09T02:04:29;21.77;;;14.25;;
18114;SDS011;9184;54.390;18.620;2023-07-09T02:05:02;19.40;;;14.07;;
18114;SDS011;9184;54.390;18.620;2023-07-09T02:05:34;18.27;;;13.52;;
18114;SDS011;9184;54.390;18.620;2023-07-09T02:06:06;20.42;;;14.55;;
18114;SDS011;9184;54.390;18.620;2023-07-09T02:06:40;21.05;;;13.73;;
18114;SDS011;9184;54.390;18.620;2023-07-09T02:07:12;17.60;;;13.75;;
18114;SDS011;9184;54.390;18.620;2023-07-09T02:07:42;18.98;;;14.68;;
18114;SDS011;9184;54.390;18.620;2023-07-09T02:08:13;19.23;;;13.50;;
18114;SDS011;9184;54.390;18.620;2023-07-09T02:08:45;18.85;;;14.15;;
18114;SDS011;9184;54.390;18.620;2023-07-09T02:09:15;22.15;;;15.05;;
18114;SDS011;9184;54.390;18.620;2023-07-09T02:09:46;18.02;;;13.70;;
18114;SDS011;9184;54.390;18.620;2023-07-09T02:10:17;17.73;;;13.50;;
18114;SDS011;9184;54.390;18.620;2023-07-09T02:10:48;20.42;;;14.75;;
18114;SDS011;9184;54.390;18.620;2023-07-09T02:11:19;21.73;;;13.90;;
18114;SDS011;9184;54.390;18.620;2023-07-09T02:11:49;20.67;;;14.07;;
18114;SDS011;9184;54.390;18.620;2023-07-09T02:12:20;21.48;;;13.32;;
18114;SDS011;9184;54.390;18.620;2023-07-09T02:12:50;18.13;;;14.32;;
18114;SDS011;9184;54.390;18.620;2023-07-09T02:13:22;23.30;;;15.95;;
18114;SDS011;9184;54.390;18.620;2023-07-09T02:13:52;19.90;;;14.13;;
18114;SDS011;9184;54.390;18.620;2023-07-09T02:14:23;17.85;;;13.02;;
18114;SDS011;9184;54.390;18.620;2023-07-09T02:14:54;18.35;;;14.88;;
18114;SDS011;9184;54.390;18.620;2023-07-09T02:15:25;22.92;;;13.90;;
18114;SDS011;9184;54.390;18.620;2023-07-09T02:15:56;18.98;;;14.80;;
18114;SDS011;9184;54.390;18.620;2023-07-09T02:16:26;22.40;;;14.02;;
18114;SDS011;9184;54.390;18.620;2023-07-09T02:16:57;19.92;;;14.07;;
18114;SDS011;9184;54.390;18.620;2023-07-09T02:17:27;24.58;;;15.45;;
18114;SDS011;9184;54.390;18.620;2023-07-09T02:17:59;20.00;;;13.95;;
18114;SDS011;9184;54.390;18.620;2023-07-09T02:18:32;18.77;;;13.40;;
18114;SDS011;9184;54.390;18.620;2023-07-09T02:19:02;20.95;;;14.40;;
18114;SDS011;9184;54.390;18.620;2023-07-09T02:19:33;22.17;;;15.52;;
18114;SDS011;9184;54.390;18.620;2023-07-09T02:20:05;16.98;;;13.90;;
18114;SDS011;9184;54.390;18.620;2023-07-09T02:20:37;18.27;;;14.00;;
18114;SDS011;9184;54.390;18.620;2023-07-09T02:21:07;20.45;;;14.52;;
18114;SDS011;9184;54.390;18.620;2023-07-09T02:21:40;21.95;;;14.23;;
18114;SDS011;9184;54.390;18.620;2023-07-09T02:22:11;22.48;;;15.27;;
18114;SDS011;9184;54.390;18.620;2023-07-09T02:22:42;20.63;;;14.52;;
18114;SDS011;9184;54.390;18.620;2023-07-09T02:23:13;20.92;;;15.48;;
18114;SDS011;9184;54.390;18.620;2023-07-09T02:23:44;19.60;;;14.68;;
18114;SDS011;9184;54.390;18.620;2023-07-09T02:24:14;19.10;;;13.48;;
18114;SDS011;9184;54.390;18.620;2023-07-09T02:24:45;23.02;;;14.43;;
18114;SDS011;9184;54.390;18.620;2023-07-09T02:25:16;18.85;;;14.90;;
18114;SDS011;9184;54.390;18.620;2023-07-09T02:25:47;22.77;;;14.35;;
18114;SDS011;9184;54.390;18.620;2023-07-09T02:26:17;18.13;;;14.27;;
18114;SDS011;9184;54.390;18.620;2023-07-09T02:26:48;22.92;;;15.77;;
18114;SDS011;9184;54.390;18.620;2023-07-09T02:27:19;25.10;;;15.73;;
18114;SDS011;9184;54.390;18.620;2023-07-09T02:27:50;20.08;;;15.15;;
18114;SDS011;9184;54.390;18.620;2023-07-09T02:28:20;23.13;;;16.33;;
18114;SDS011;9184;54.390;18.620;2023-07-09T02:28:51;22.50;;;15.93;;
18114;SDS011;9184;54.390;18.620;2023-07-09T02:29:23;23.63;;;16.10;;
18114;SDS011;9184;54.390;18.620;2023-07-09T02:29:53;21.20;;;15.00;;
18114;SDS011;9184;54.390;18.620;2023-07-09T02:30:24;20.75;;;15.38;;
18114;SDS011;9184;54.390;18.620;2023-07-09T02:30:56;22.73;;;16.13;;
18114;SDS011;9184;54.390;18.620;2023-07-09T02:31:26;19.63;;;15.23;;
18114;SDS011;9184;54.390;18.620;2023-07-09T02:32:00;24.58;;;15.77;;
18114;SDS011;9184;54.390;18.620;2023-07-09T02:32:30;23.25;;;15.85;;
18114;SDS011;9184;54.390;18.620;2023-07-09T02:33:01;23.25;;;16.35;;
18114;SDS011;9184;54.390;18.620;2023-07-09T02:33:32;23.55;;;14.80;;
18114;SDS011;9184;54.390;18.620;2023-07-09T02:34:03;21.30;;;15.65;;
18114;SDS011;9184;54.390;18.620;2023-07-09T02:34:33;20.08;;;15.18;;
18114;SDS011;9184;54.390;18.620;2023-07-09T02:35:05;22.60;;;16.13;;
18114;SDS011;9184;54.390;18.620;2023-07-09T02:35:36;18.23;;;15.00;;
18114;SDS011;9184;54.390;18.620;2023-07-09T02:36:07;24.58;;;14.82;;
18114;SDS011;9184;54.390;18.620;2023-07-09T02:36:38;21.25;;;14.90;;
18114;SDS011;9184;54.390;18.620;2023-07-09T02:37:14;23.20;;;17.25;;
18114;SDS011;9184;54.390;18.620;2023-07-09T02:37:45;18.90;;;14.35;;
18114;SDS011;9184;54.390;18.620;2023-07-09T02:38:16;20.35;;;15.27;;
18114;SDS011;9184;54.390;18.620;2023-07-09T02:38:47;20.58;;;14.65;;
18114;SDS011;9184;54.390;18.620;2023-07-09T02:39:17;21.38;;;14.57;;
18114;SDS011;9184;54.390;18.620;2023-07-09T02:39:48;20.67;;;14.70;;
18114;SDS011;9184;54.390;18.620;2023-07-09T02:40:22;20.95;;;14.35;;
18114;SDS011;9184;54.390;18.620;2023-07-09T02:40:52;21.35;;;14.63;;
18114;SDS011;9184;54.390;18.620;2023-07-09T02:41:23;23.15;;;15.13;;
18114;SDS011;9184;54.390;18.620;2023-07-09T02:41:54;21.58;;;15.02;;
18114;SDS011;9184;54.390;18.620;2023-07-09T02:42:24;22.30;;;15.40;;
18114;SDS011;9184;54.390;18.620;2023-07-09T02:42:56;19.10;;;15.43;;
18114;SDS011;9184;54.390;18.620;2023-07-09T02:43:26;23.23;;;16.52;;
18114;SDS011;9184;54.390;18.620;2023-07-09T02:43:57;19.58;;;15.07;;
18114;SDS011;9184;54.390;18.620;2023-07-09T02:44:27;18.15;;;14.27;;
18114;SDS011;9184;54.390;18.620;2023-07-09T02:44:58;27.42;;;16.05;;
18114;SDS011;9184;54.390;18.620;2023-07-09T02:45:29;22.15;;;15.85;;
18114;SDS011;9184;54.390;18.620;2023-07-09T02:45:59;19.55;;;14.55;;
18114;SDS011;9184;54.390;18.620;2023-07-09T02:46:30;19.73;;;14.02;;
18114;SDS011;9184;54.390;18.620;2023-07-09T02:47:01;21.23;;;13.90;;
18114;SDS011;9184;54.390;18.620;2023-07-09T02:47:32;22.38;;;14.52;;
18114;SDS011;9184;54.390;18.620;2023-07-09T02:48:02;17.27;;;14.00;;
18114;SDS011;9184;54.390;18.620;2023-07-09T02:48:34;19.42;;;13.88;;
18114;SDS011;9184;54.390;18.620;2023-07-09T02:49:05;20.05;;;13.60;;
18114;SDS011;9184;54.390;18.620;2023-07-09T02:49:35;21.80;;;14.40;;
18114;SDS011;9184;54.390;18.620;2023-07-09T02:50:06;21.58;;;14.25;;
18114;SDS011;9184;54.390;18.620;2023-07-09T02:50:38;19.08;;;14.02;;
18114;SDS011;9184;54.390;18.620;2023-07-09T02:51:08;18.70;;;14.52;;
18114;SDS011;9184;54.390;18.620;2023-07-09T02:51:39;20.60;;;14.90;;
18114;SDS011;9184;54.390;18.620;2023-07-09T02:52:09;21.15;;;14.15;;
18114;SDS011;9184;54.390;18.620;2023-07-09T02:52:42;20.85;;;14.55;;
18114;SDS011;9184;54.390;18.620;2023-07-09T02:53:13;17.35;;;13.25;;
18114;SDS011;9184;54.390;18.620;2023-07-09T02:53:44;15.90;;;12.88;;
18114;SDS011;9184;54.390;18.620;2023-07-09T02:54:14;15.80;;;12.68;;
18114;SDS011;9184;54.390;18.620;2023-07-09T02:54:46;19.98;;;13.50;;
18114;SDS011;9184;54.390;18.620;2023-07-09T02:55:16;18.58;;;12.90;;
18114;SDS011;9184;54.390;18.620;2023-07-09T02:55:47;21.40;;;13.75;;
18114;SDS011;9184;54.390;18.620;2023-07-09T02:56:17;17.15;;;13.10;;
18114;SDS011;9184;54.390;18.620;2023-07-09T02:56:49;18.92;;;13.38;;
18114;SDS011;9184;54.390;18.620;2023-07-09T02:57:19;17.00;;;13.02;;
18114;SDS011;9184;54.390;18.620;2023-07-09T02:57:50;16.27;;;11.60;;
18114;SDS011;9184;54.390;18.620;2023-07-09T02:58:22;18.98;;;12.65;;
18114;SDS011;9184;54.390;18.620;2023-07-09T02:58:52;20.02;;;13.93;;
18114;SDS011;9184;54.390;18.620;2023-07-09T02:59:23;21.67;;;13.38;;
18114;SDS011;9184;54.390;18.620;2023-07-09T02:59:54;20.38;;;11.57;;
18114;SDS011;9184;54.390;18.620;2023-07-09T03:00:25;19.70;;;13.10;;
18114;SDS011;9184;54.390;18.620;2023-07-09T03:00:56;18.25;;;12.20;;
18114;SDS011;9184;54.390;18.620;2023-07-09T03:01:26;16.13;;;12.00;;
18114;SDS011;9184;54.390;18.620;2023-07-09T03:01:57;13.65;;;11.15;;
18114;SDS011;9184;54.390;18.620;2023-07-09T03:02:28;18.65;;;12.93;;
18114;SDS011;9184;54.390;18.620;2023-07-09T03:02:59;19.75;;;12.65;;
18114;SDS011;9184;54.390;18.620;2023-07-09T03:03:29;20.25;;;12.98;;
18114;SDS011;9184;54.390;18.620;2023-07-09T03:04:00;18.73;;;12.98;;
18114;SDS011;9184;54.390;18.620;2023-07-09T03:04:33;16.42;;;11.68;;
18114;SDS011;9184;54.390;18.620;2023-07-09T03:05:03;18.70;;;12.60;;
18114;SDS011;9184;54.390;18.620;2023-07-09T03:05:34;17.60;;;12.55;;
18114;SDS011;9184;54.390;18.620;2023-07-09T03:06:05;17.48;;;12.95;;
18114;SDS011;9184;54.390;18.620;2023-07-09T03:06:36;20.98;;;12.55;;
18114;SDS011;9184;54.390;18.620;2023-07-09T03:07:06;17.08;;;13.07;;
18114;SDS011;9184;54.390;18.620;2023-07-09T03:07:37;17.77;;;12.10;;
18114;SDS011;9184;54.390;18.620;2023-07-09T03:08:10;18.10;;;11.60;;